sensor_id;sensor_type;location;lat;lon;timestamp;temperature;humidity
52275;DHT22;38228;50.940;4.024;2022-09-09T00:01:36;15.10;99.90
52275;DHT22;38228;50.940;4.024;2022-09-09T00:06:59;15.10;99.90
52275;DHT22;38228;50.940;4.024;2022-09-09T00:09:29;15.10;99.90
52275;DHT22;38228;50.940;4.024;2022-09-09T00:12:10;15.10;99.90
52275;DHT22;38228;50.940;4.024;2022-09-09T00:14:54;15.10;99.90
52275;DHT22;38228;50.940;4.024;2022-09-09T00:17:48;15.10;99.90
52275;DHT22;38228;50.940;4.024;2022-09-09T00:20:21;15.10;99.90
52275;DHT22;38228;50.940;4.024;2022-09-09T00:28:27;15.10;99.90
52275;DHT22;38228;50.940;4.024;2022-09-09T00:31:16;15.10;99.90
52275;DHT22;38228;50.940;4.024;2022-09-09T00:33:44;15.20;99.90
52275;DHT22;38228;50.940;4.024;2022-09-09T00:36:14;15.20;99.90
52275;DHT22;38228;50.940;4.024;2022-09-09T00:38:45;15.20;99.90
52275;DHT22;38228;50.940;4.024;2022-09-09T00:43:52;15.20;99.90
52275;DHT22;38228;50.940;4.024;2022-09-09T00:59:59;15.20;99.90
52275;DHT22;38228;50.940;4.024;2022-09-09T01:05:22;15.20;99.90
52275;DHT22;38228;50.940;4.024;2022-09-09T01:07:50;15.20;99.90
52275;DHT22;38228;50.940;4.024;2022-09-09T01:10:51;15.10;99.90
52275;DHT22;38228;50.940;4.024;2022-09-09T01:13:32;15.10;99.90
52275;DHT22;38228;50.940;4.024;2022-09-09T01:16:00;15.10;99.90
52275;DHT22;38228;50.940;4.024;2022-09-09T01:18:31;15.10;99.90
52275;DHT22;38228;50.940;4.024;2022-09-09T01:26:42;15.10;99.90
52275;DHT22;38228;50.940;4.024;2022-09-09T01:29:11;15.10;99.90
52275;DHT22;38228;50.940;4.024;2022-09-09T01:31:53;15.00;99.90
52275;DHT22;38228;50.940;4.024;2022-09-09T01:34:20;15.00;99.90
52275;DHT22;38228;50.940;4.024;2022-09-09T01:39:21;15.00;99.90
52275;DHT22;38228;50.940;4.024;2022-09-09T01:41:46;14.90;99.90
52275;DHT22;38228;50.940;4.024;2022-09-09T01:44:12;15.00;99.90
52275;DHT22;38228;50.940;4.024;2022-09-09T01:46:38;15.00;99.90
52275;DHT22;38228;50.940;4.024;2022-09-09T01:49:06;15.00;99.90
52275;DHT22;38228;50.940;4.024;2022-09-09T01:51:33;15.00;99.90
52275;DHT22;38228;50.940;4.024;2022-09-09T01:53:59;14.90;99.90
52275;DHT22;38228;50.940;4.024;2022-09-09T01:56:48;14.90;99.90
52275;DHT22;38228;50.940;4.024;2022-09-09T02:04:54;15.00;99.90
52275;DHT22;38228;50.940;4.024;2022-09-09T02:12:40;15.00;99.90
52275;DHT22;38228;50.940;4.024;2022-09-09T02:15:23;15.00;99.90
52275;DHT22;38228;50.940;4.024;2022-09-09T02:17:52;14.90;99.90
52275;DHT22;38228;50.940;4.024;2022-09-09T02:20:20;15.00;99.90
52275;DHT22;38228;50.940;4.024;2022-09-09T02:22:48;14.90;99.90
52275;DHT22;38228;50.940;4.024;2022-09-09T02:25:17;15.00;99.90
52275;DHT22;38228;50.940;4.024;2022-09-09T02:27:45;15.00;99.90
52275;DHT22;38228;50.940;4.024;2022-09-09T02:30:13;15.00;99.90
52275;DHT22;38228;50.940;4.024;2022-09-09T02:32:42;15.00;99.90
52275;DHT22;38228;50.940;4.024;2022-09-09T02:35:15;15.10;99.90
52275;DHT22;38228;50.940;4.024;2022-09-09T02:37:44;15.10;99.90
52275;DHT22;38228;50.940;4.024;2022-09-09T02:40:14;15.00;99.90
52275;DHT22;38228;50.940;4.024;2022-09-09T02:42:42;15.10;99.90
52275;DHT22;38228;50.940;4.024;2022-09-09T02:45:11;15.20;99.90
52275;DHT22;38228;50.940;4.024;2022-09-09T02:50:31;15.20;99.90
52275;DHT22;38228;50.940;4.024;2022-09-09T02:58:10;15.20;99.90
52275;DHT22;38228;50.940;4.024;2022-09-09T03:00:39;15.30;99.90
52275;DHT22;38228;50.940;4.024;2022-09-09T03:03:06;15.30;99.90
52275;DHT22;38228;50.940;4.024;2022-09-09T03:05:34;15.30;99.90
52275;DHT22;38228;50.940;4.024;2022-09-09T03:07:59;15.30;99.90
52275;DHT22;38228;50.940;4.024;2022-09-09T03:10:25;15.30;99.90
52275;DHT22;38228;50.940;4.024;2022-09-09T03:12:51;15.30;99.90
52275;DHT22;38228;50.940;4.024;2022-09-09T03:15:17;15.20;99.90
52275;DHT22;38228;50.940;4.024;2022-09-09T03:17:42;15.20;99.90
52275;DHT22;38228;50.940;4.024;2022-09-09T03:20:08;15.20;99.90
52275;DHT22;38228;50.940;4.024;2022-09-09T03:22:35;15.30;99.90
52275;DHT22;38228;50.940;4.024;2022-09-09T03:25:01;15.30;99.90
52275;DHT22;38228;50.940;4.024;2022-09-09T03:27:28;15.30;99.90
52275;DHT22;38228;50.940;4.024;2022-09-09T03:29:54;15.20;99.90
52275;DHT22;38228;50.940;4.024;2022-09-09T03:32:21;15.20;99.90
52275;DHT22;38228;50.940;4.024;2022-09-09T03:34:48;15.20;99.90
52275;DHT22;38228;50.940;4.024;2022-09-09T03:37:16;15.20;99.90
52275;DHT22;38228;50.940;4.024;2022-09-09T03:39:43;15.20;99.90
52275;DHT22;38228;50.940;4.024;2022-09-09T03:42:09;15.20;99.90
52275;DHT22;38228;50.940;4.024;2022-09-09T03:44:34;15.30;99.90
52275;DHT22;38228;50.940;4.024;2022-09-09T03:47:00;15.30;99.90
52275;DHT22;38228;50.940;4.024;2022-09-09T03:49:26;15.30;99.90
52275;DHT22;38228;50.940;4.024;2022-09-09T03:51:55;15.30;99.90
52275;DHT22;38228;50.940;4.024;2022-09-09T03:54:22;15.30;99.90
52275;DHT22;38228;50.940;4.024;2022-09-09T03:56:48;15.30;99.90
52275;DHT22;38228;50.940;4.024;2022-09-09T03:59:13;15.30;99.90
52275;DHT22;38228;50.940;4.024;2022-09-09T04:01:39;15.40;99.90
52275;DHT22;38228;50.940;4.024;2022-09-09T04:04:05;15.40;99.90
52275;DHT22;38228;50.940;4.024;2022-09-09T04:06:31;15.40;99.90
52275;DHT22;38228;50.940;4.024;2022-09-09T04:08:56;15.40;99.90
52275;DHT22;38228;50.940;4.024;2022-09-09T04:11:22;15.50;99.90
52275;DHT22;38228;50.940;4.024;2022-09-09T04:13:48;15.60;99.90
52275;DHT22;38228;50.940;4.024;2022-09-09T04:16:15;15.70;99.90
52275;DHT22;38228;50.940;4.024;2022-09-09T04:18:41;15.60;99.90
52275;DHT22;38228;50.940;4.024;2022-09-09T04:21:07;15.60;99.90
52275;DHT22;38228;50.940;4.024;2022-09-09T04:23:33;15.60;99.90
52275;DHT22;38228;50.940;4.024;2022-09-09T04:26:01;15.60;99.90
52275;DHT22;38228;50.940;4.024;2022-09-09T04:28:31;15.50;99.90
52275;DHT22;38228;50.940;4.024;2022-09-09T04:31:03;15.50;99.90
52275;DHT22;38228;50.940;4.024;2022-09-09T04:33:29;15.50;99.90
52275;DHT22;38228;50.940;4.024;2022-09-09T04:35:56;15.50;99.90
52275;DHT22;38228;50.940;4.024;2022-09-09T04:38:22;15.50;99.90
52275;DHT22;38228;50.940;4.024;2022-09-09T04:40:49;15.50;99.90
52275;DHT22;38228;50.940;4.024;2022-09-09T04:43:15;15.50;99.90
52275;DHT22;38228;50.940;4.024;2022-09-09T04:45:42;15.50;99.90
52275;DHT22;38228;50.940;4.024;2022-09-09T04:48:08;15.50;99.90
52275;DHT22;38228;50.940;4.024;2022-09-09T04:50:35;15.50;99.90
52275;DHT22;38228;50.940;4.024;2022-09-09T04:53:02;15.50;99.90
52275;DHT22;38228;50.940;4.024;2022-09-09T04:55:27;15.50;99.90
52275;DHT22;38228;50.940;4.024;2022-09-09T04:57:53;15.50;99.90
52275;DHT22;38228;50.940;4.024;2022-09-09T05:00:19;15.60;99.90
52275;DHT22;38228;50.940;4.024;2022-09-09T05:02:45;15.50;99.90
52275;DHT22;38228;50.940;4.024;2022-09-09T05:05:13;15.50;99.90
52275;DHT22;38228;50.940;4.024;2022-09-09T05:07:39;15.50;99.90
52275;DHT22;38228;50.940;4.024;2022-09-09T05:10:05;15.50;99.90
52275;DHT22;38228;50.940;4.024;2022-09-09T05:12:31;15.60;99.90
52275;DHT22;38228;50.940;4.024;2022-09-09T05:14:57;15.60;99.90
52275;DHT22;38228;50.940;4.024;2022-09-09T05:17:23;15.70;99.90
52275;DHT22;38228;50.940;4.024;2022-09-09T05:19:49;15.80;99.90
52275;DHT22;38228;50.940;4.024;2022-09-09T05:22:21;15.90;99.90
52275;DHT22;38228;50.940;4.024;2022-09-09T05:24:49;15.80;99.90
52275;DHT22;38228;50.940;4.024;2022-09-09T05:27:17;15.80;99.90
52275;DHT22;38228;50.940;4.024;2022-09-09T05:29:43;15.80;99.90
52275;DHT22;38228;50.940;4.024;2022-09-09T05:32:10;15.80;99.90
52275;DHT22;38228;50.940;4.024;2022-09-09T05:34:35;15.90;99.90
52275;DHT22;38228;50.940;4.024;2022-09-09T05:37:03;15.90;99.90
52275;DHT22;38228;50.940;4.024;2022-09-09T05:39:29;15.90;99.90
52275;DHT22;38228;50.940;4.024;2022-09-09T05:41:55;15.80;99.90
52275;DHT22;38228;50.940;4.024;2022-09-09T05:44:21;15.90;99.90
52275;DHT22;38228;50.940;4.024;2022-09-09T05:46:49;15.80;99.90
52275;DHT22;38228;50.940;4.024;2022-09-09T05:49:15;15.80;99.90
52275;DHT22;38228;50.940;4.024;2022-09-09T05:51:41;15.90;99.90
52275;DHT22;38228;50.940;4.024;2022-09-09T05:54:08;15.90;99.90
52275;DHT22;38228;50.940;4.024;2022-09-09T05:56:34;16.00;99.90
52275;DHT22;38228;50.940;4.024;2022-09-09T05:59:00;16.10;99.90
52275;DHT22;38228;50.940;4.024;2022-09-09T06:01:29;16.10;99.90
52275;DHT22;38228;50.940;4.024;2022-09-09T08:51:27;17.40;99.90
52275;DHT22;38228;50.940;4.024;2022-09-09T08:53:57;17.40;99.90
52275;DHT22;38228;50.940;4.024;2022-09-09T08:56:27;17.30;99.90
52275;DHT22;38228;50.940;4.024;2022-09-09T08:58:56;17.20;99.90
52275;DHT22;38228;50.940;4.024;2022-09-09T09:07:12;17.00;99.90
52275;DHT22;38228;50.940;4.024;2022-09-09T09:12:31;17.10;99.90
52275;DHT22;38228;50.940;4.024;2022-09-09T09:14:59;17.30;99.90
52275;DHT22;38228;50.940;4.024;2022-09-09T09:17:27;17.40;99.90
52275;DHT22;38228;50.940;4.024;2022-09-09T09:19:57;17.50;99.90
52275;DHT22;38228;50.940;4.024;2022-09-09T09:22:50;17.50;99.90
52275;DHT22;38228;50.940;4.024;2022-09-09T09:25:27;17.50;99.90
52275;DHT22;38228;50.940;4.024;2022-09-09T09:28:16;17.30;99.90
52275;DHT22;38228;50.940;4.024;2022-09-09T09:30:50;17.30;99.90
52275;DHT22;38228;50.940;4.024;2022-09-09T09:33:30;17.40;99.90
52275;DHT22;38228;50.940;4.024;2022-09-09T09:35:57;17.50;99.90
52275;DHT22;38228;50.940;4.024;2022-09-09T09:38:26;17.60;99.90
52275;DHT22;38228;50.940;4.024;2022-09-09T09:40:56;17.70;99.90
52275;DHT22;38228;50.940;4.024;2022-09-09T09:43:33;17.70;99.90
52275;DHT22;38228;50.940;4.024;2022-09-09T09:46:03;17.70;99.90
52275;DHT22;38228;50.940;4.024;2022-09-09T09:48:29;17.70;99.90
52275;DHT22;38228;50.940;4.024;2022-09-09T09:51:05;17.90;99.90
52275;DHT22;38228;50.940;4.024;2022-09-09T09:53:34;17.90;99.90
52275;DHT22;38228;50.940;4.024;2022-09-09T09:56:03;17.90;99.90
52275;DHT22;38228;50.940;4.024;2022-09-09T10:01:39;18.10;99.90
52275;DHT22;38228;50.940;4.024;2022-09-09T10:04:20;18.40;99.90
52275;DHT22;38228;50.940;4.024;2022-09-09T10:06:47;18.50;99.90
52275;DHT22;38228;50.940;4.024;2022-09-09T10:09:29;18.60;99.90
52275;DHT22;38228;50.940;4.024;2022-09-09T10:20:19;18.60;99.90
52275;DHT22;38228;50.940;4.024;2022-09-09T10:22:51;18.60;99.90
52275;DHT22;38228;50.940;4.024;2022-09-09T10:33:54;18.40;99.90
52275;DHT22;38228;50.940;4.024;2022-09-09T10:36:24;18.10;99.90
52275;DHT22;38228;50.940;4.024;2022-09-09T10:55:27;18.30;99.90
52275;DHT22;38228;50.940;4.024;2022-09-09T10:57:58;18.50;99.90
52275;DHT22;38228;50.940;4.024;2022-09-09T11:00:42;18.40;99.90
52275;DHT22;38228;50.940;4.024;2022-09-09T11:03:29;18.50;99.90
52275;DHT22;38228;50.940;4.024;2022-09-09T11:06:00;18.50;99.90
52275;DHT22;38228;50.940;4.024;2022-09-09T11:08:30;18.60;99.90
52275;DHT22;38228;50.940;4.024;2022-09-09T11:11:03;18.80;99.90
52275;DHT22;38228;50.940;4.024;2022-09-09T11:13:44;19.00;99.90
52275;DHT22;38228;50.940;4.024;2022-09-09T11:19:14;19.50;99.90
52275;DHT22;38228;50.940;4.024;2022-09-09T11:21:47;19.60;99.90
52275;DHT22;38228;50.940;4.024;2022-09-09T11:24:35;19.50;99.90
52275;DHT22;38228;50.940;4.024;2022-09-09T11:27:23;19.50;99.90
52275;DHT22;38228;50.940;4.024;2022-09-09T11:35:55;19.30;99.90
52275;DHT22;38228;50.940;4.024;2022-09-09T11:38:45;19.00;99.90
52275;DHT22;38228;50.940;4.024;2022-09-09T11:41:13;18.80;99.90
52275;DHT22;38228;50.940;4.024;2022-09-09T11:43:41;18.90;99.90
52275;DHT22;38228;50.940;4.024;2022-09-09T11:46:07;19.00;99.90
52275;DHT22;38228;50.940;4.024;2022-09-09T11:48:42;19.20;99.90
52275;DHT22;38228;50.940;4.024;2022-09-09T11:56:30;19.60;99.90
52275;DHT22;38228;50.940;4.024;2022-09-09T11:59:03;19.60;99.90
52275;DHT22;38228;50.940;4.024;2022-09-09T12:01:34;19.90;99.90
52275;DHT22;38228;50.940;4.024;2022-09-09T12:06:59;20.20;99.90
52275;DHT22;38228;50.940;4.024;2022-09-09T12:17:22;20.60;99.90
52275;DHT22;38228;50.940;4.024;2022-09-09T12:20:06;20.60;99.90
52275;DHT22;38228;50.940;4.024;2022-09-09T12:22:44;20.80;99.90
52275;DHT22;38228;50.940;4.024;2022-09-09T12:30:29;20.50;99.90
52275;DHT22;38228;50.940;4.024;2022-09-09T12:33:10;20.60;99.90
52275;DHT22;38228;50.940;4.024;2022-09-09T12:35:37;20.60;99.90
52275;DHT22;38228;50.940;4.024;2022-09-09T12:38:05;20.60;99.90
52275;DHT22;38228;50.940;4.024;2022-09-09T12:40:35;20.60;99.90
52275;DHT22;38228;50.940;4.024;2022-09-09T12:43:15;20.60;99.90
52275;DHT22;38228;50.940;4.024;2022-09-09T12:45:42;20.60;99.90
52275;DHT22;38228;50.940;4.024;2022-09-09T12:48:09;20.80;99.90
52275;DHT22;38228;50.940;4.024;2022-09-09T12:50:48;20.50;99.90
52275;DHT22;38228;50.940;4.024;2022-09-09T12:53:50;20.20;99.90
52275;DHT22;38228;50.940;4.024;2022-09-09T12:56:30;20.00;99.90
52275;DHT22;38228;50.940;4.024;2022-09-09T12:58:58;20.20;99.90
52275;DHT22;38228;50.940;4.024;2022-09-09T13:03:51;20.60;99.90
52275;DHT22;38228;50.940;4.024;2022-09-09T13:06:23;20.70;99.90
52275;DHT22;38228;50.940;4.024;2022-09-09T13:08:51;20.80;99.90
52275;DHT22;38228;50.940;4.024;2022-09-09T13:11:21;20.60;99.90
52275;DHT22;38228;50.940;4.024;2022-09-09T13:13:52;20.50;99.90
52275;DHT22;38228;50.940;4.024;2022-09-09T13:16:30;20.40;99.90
52275;DHT22;38228;50.940;4.024;2022-09-09T13:19:06;20.50;99.90
52275;DHT22;38228;50.940;4.024;2022-09-09T13:21:37;20.40;99.90
52275;DHT22;38228;50.940;4.024;2022-09-09T13:24:05;20.50;99.90
52275;DHT22;38228;50.940;4.024;2022-09-09T13:26:34;20.50;99.90
52275;DHT22;38228;50.940;4.024;2022-09-09T13:29:17;20.60;99.90
52275;DHT22;38228;50.940;4.024;2022-09-09T13:31:43;20.90;99.90
52275;DHT22;38228;50.940;4.024;2022-09-09T13:34:29;21.00;99.90
52275;DHT22;38228;50.940;4.024;2022-09-09T13:37:00;21.00;99.90
52275;DHT22;38228;50.940;4.024;2022-09-09T13:41:54;21.00;99.90
52275;DHT22;38228;50.940;4.024;2022-09-09T13:44:27;20.80;99.90
52275;DHT22;38228;50.940;4.024;2022-09-09T13:47:22;20.80;99.90
52275;DHT22;38228;50.940;4.024;2022-09-09T13:49:46;20.80;99.90
52275;DHT22;38228;50.940;4.024;2022-09-09T13:52:17;20.90;99.90
52275;DHT22;38228;50.940;4.024;2022-09-09T13:54:48;20.60;99.90
52275;DHT22;38228;50.940;4.024;2022-09-09T13:57:20;20.60;99.90
52275;DHT22;38228;50.940;4.024;2022-09-09T13:59:46;20.70;99.90
52275;DHT22;38228;50.940;4.024;2022-09-09T14:02:13;20.70;99.90
52275;DHT22;38228;50.940;4.024;2022-09-09T14:04:39;20.70;99.90
52275;DHT22;38228;50.940;4.024;2022-09-09T14:07:10;20.90;99.90
52275;DHT22;38228;50.940;4.024;2022-09-09T14:09:37;20.90;99.90
52275;DHT22;38228;50.940;4.024;2022-09-09T14:12:02;20.90;99.90
52275;DHT22;38228;50.940;4.024;2022-09-09T14:14:28;21.00;99.90
52275;DHT22;38228;50.940;4.024;2022-09-09T14:16:54;21.20;99.90
52275;DHT22;38228;50.940;4.024;2022-09-09T14:19:20;21.30;99.90
52275;DHT22;38228;50.940;4.024;2022-09-09T14:21:45;21.70;99.90
52275;DHT22;38228;50.940;4.024;2022-09-09T14:24:11;22.10;99.90
52275;DHT22;38228;50.940;4.024;2022-09-09T14:26:37;22.50;99.90
52275;DHT22;38228;50.940;4.024;2022-09-09T14:29:03;22.90;99.90
52275;DHT22;38228;50.940;4.024;2022-09-09T14:31:29;22.80;99.90
52275;DHT22;38228;50.940;4.024;2022-09-09T14:33:54;22.40;99.90
52275;DHT22;38228;50.940;4.024;2022-09-09T14:36:20;22.50;99.90
52275;DHT22;38228;50.940;4.024;2022-09-09T14:38:46;22.90;99.90
52275;DHT22;38228;50.940;4.024;2022-09-09T14:41:15;23.00;99.90
52275;DHT22;38228;50.940;4.024;2022-09-09T14:43:45;22.80;99.90
52275;DHT22;38228;50.940;4.024;2022-09-09T14:46:13;22.60;99.90
52275;DHT22;38228;50.940;4.024;2022-09-09T14:48:39;22.20;99.90
52275;DHT22;38228;50.940;4.024;2022-09-09T14:51:15;21.80;99.90
52275;DHT22;38228;50.940;4.024;2022-09-09T14:53:41;21.50;99.90
52275;DHT22;38228;50.940;4.024;2022-09-09T14:56:09;21.40;99.90
52275;DHT22;38228;50.940;4.024;2022-09-09T14:58:36;21.10;99.90
52275;DHT22;38228;50.940;4.024;2022-09-09T15:01:13;20.80;99.90
52275;DHT22;38228;50.940;4.024;2022-09-09T15:03:40;20.60;99.90
52275;DHT22;38228;50.940;4.024;2022-09-09T15:06:08;20.40;99.90
52275;DHT22;38228;50.940;4.024;2022-09-09T15:08:35;20.40;99.90
52275;DHT22;38228;50.940;4.024;2022-09-09T15:11:02;20.20;99.90
52275;DHT22;38228;50.940;4.024;2022-09-09T15:13:28;20.10;99.90
52275;DHT22;38228;50.940;4.024;2022-09-09T15:15:54;20.10;99.90
52275;DHT22;38228;50.940;4.024;2022-09-09T15:18:20;20.20;99.90
52275;DHT22;38228;50.940;4.024;2022-09-09T15:20:46;20.10;99.90
52275;DHT22;38228;50.940;4.024;2022-09-09T15:23:13;20.00;99.90
52275;DHT22;38228;50.940;4.024;2022-09-09T15:25:50;19.80;99.90
52275;DHT22;38228;50.940;4.024;2022-09-09T15:28:16;19.60;99.90
52275;DHT22;38228;50.940;4.024;2022-09-09T15:30:41;19.50;99.90
52275;DHT22;38228;50.940;4.024;2022-09-09T15:33:10;19.20;99.90
52275;DHT22;38228;50.940;4.024;2022-09-09T15:35:36;18.90;99.90
52275;DHT22;38228;50.940;4.024;2022-09-09T15:38:02;18.90;99.90
52275;DHT22;38228;50.940;4.024;2022-09-09T15:40:30;18.80;99.90
52275;DHT22;38228;50.940;4.024;2022-09-09T15:42:58;18.80;99.90
52275;DHT22;38228;50.940;4.024;2022-09-09T15:45:23;18.70;99.90
52275;DHT22;38228;50.940;4.024;2022-09-09T15:47:49;18.70;99.90
52275;DHT22;38228;50.940;4.024;2022-09-09T15:50:15;18.70;99.90
52275;DHT22;38228;50.940;4.024;2022-09-09T15:52:40;18.90;99.90
52275;DHT22;38228;50.940;4.024;2022-09-09T15:55:06;18.90;99.90
52275;DHT22;38228;50.940;4.024;2022-09-09T16:14:35;18.60;99.90
52275;DHT22;38228;50.940;4.024;2022-09-09T16:17:02;18.50;99.90
52275;DHT22;38228;50.940;4.024;2022-09-09T16:19:28;18.30;99.90
52275;DHT22;38228;50.940;4.024;2022-09-09T16:21:53;18.20;99.90
52275;DHT22;38228;50.940;4.024;2022-09-09T16:24:19;18.00;99.90
52275;DHT22;38228;50.940;4.024;2022-09-09T16:26:47;17.90;99.90
52275;DHT22;38228;50.940;4.024;2022-09-09T16:29:14;17.80;99.90
52275;DHT22;38228;50.940;4.024;2022-09-09T16:31:41;17.80;99.90
52275;DHT22;38228;50.940;4.024;2022-09-09T16:34:07;17.90;99.90
52275;DHT22;38228;50.940;4.024;2022-09-09T16:36:35;18.00;99.90
52275;DHT22;38228;50.940;4.024;2022-09-09T16:39:07;18.10;99.90
52275;DHT22;38228;50.940;4.024;2022-09-09T16:41:34;18.10;99.90
52275;DHT22;38228;50.940;4.024;2022-09-09T16:44:05;18.30;99.90
52275;DHT22;38228;50.940;4.024;2022-09-09T16:46:35;18.50;99.90
52275;DHT22;38228;50.940;4.024;2022-09-09T16:49:03;18.70;99.90
52275;DHT22;38228;50.940;4.024;2022-09-09T16:51:34;18.80;99.90
52275;DHT22;38228;50.940;4.024;2022-09-09T16:54:03;19.00;99.90
52275;DHT22;38228;50.940;4.024;2022-09-09T16:56:30;19.10;99.90
52275;DHT22;38228;50.940;4.024;2022-09-09T16:59:00;19.20;99.90
52275;DHT22;38228;50.940;4.024;2022-09-09T17:01:29;19.10;99.90
52275;DHT22;38228;50.940;4.024;2022-09-09T17:04:01;19.10;99.90
52275;DHT22;38228;50.940;4.024;2022-09-09T17:06:28;19.00;99.90
52275;DHT22;38228;50.940;4.024;2022-09-09T17:08:58;18.90;99.90
52275;DHT22;38228;50.940;4.024;2022-09-09T17:11:25;18.80;99.90
52275;DHT22;38228;50.940;4.024;2022-09-09T17:13:52;18.90;99.90
52275;DHT22;38228;50.940;4.024;2022-09-09T17:16:20;18.90;99.90
52275;DHT22;38228;50.940;4.024;2022-09-09T17:18:48;19.00;99.90
52275;DHT22;38228;50.940;4.024;2022-09-09T17:21:16;19.10;99.90
52275;DHT22;38228;50.940;4.024;2022-09-09T17:23:42;19.00;99.90
52275;DHT22;38228;50.940;4.024;2022-09-09T17:26:10;19.00;99.90
52275;DHT22;38228;50.940;4.024;2022-09-09T17:28:37;18.90;99.90
52275;DHT22;38228;50.940;4.024;2022-09-09T17:31:09;18.80;99.90
52275;DHT22;38228;50.940;4.024;2022-09-09T17:33:37;18.80;99.90
52275;DHT22;38228;50.940;4.024;2022-09-09T17:36:14;18.70;99.90
52275;DHT22;38228;50.940;4.024;2022-09-09T17:38:41;18.70;99.90
52275;DHT22;38228;50.940;4.024;2022-09-09T17:43:36;18.60;99.90
52275;DHT22;38228;50.940;4.024;2022-09-09T17:46:12;18.50;99.90
52275;DHT22;38228;50.940;4.024;2022-09-09T17:48:38;18.50;99.90
52275;DHT22;38228;50.940;4.024;2022-09-09T17:51:07;18.40;99.90
52275;DHT22;38228;50.940;4.024;2022-09-09T17:53:43;18.20;99.90
52275;DHT22;38228;50.940;4.024;2022-09-09T17:56:12;18.20;99.90
52275;DHT22;38228;50.940;4.024;2022-09-09T17:58:39;18.00;99.90
52275;DHT22;38228;50.940;4.024;2022-09-09T18:01:17;18.00;99.90
52275;DHT22;38228;50.940;4.024;2022-09-09T18:03:44;17.90;99.90
52275;DHT22;38228;50.940;4.024;2022-09-09T18:06:14;17.90;99.90
52275;DHT22;38228;50.940;4.024;2022-09-09T18:08:42;17.90;99.90
52275;DHT22;38228;50.940;4.024;2022-09-09T18:11:08;17.90;99.90
52275;DHT22;38228;50.940;4.024;2022-09-09T18:13:34;17.80;99.90
52275;DHT22;38228;50.940;4.024;2022-09-09T18:16:01;17.70;99.90
52275;DHT22;38228;50.940;4.024;2022-09-09T18:18:27;17.60;99.90
52275;DHT22;38228;50.940;4.024;2022-09-09T18:21:02;17.60;99.90
52275;DHT22;38228;50.940;4.024;2022-09-09T18:23:28;17.60;99.90
52275;DHT22;38228;50.940;4.024;2022-09-09T18:25:55;17.60;99.90
52275;DHT22;38228;50.940;4.024;2022-09-09T18:28:24;17.60;99.90
52275;DHT22;38228;50.940;4.024;2022-09-09T18:30:50;17.60;99.90
52275;DHT22;38228;50.940;4.024;2022-09-09T18:33:15;17.60;99.90
52275;DHT22;38228;50.940;4.024;2022-09-09T18:35:41;17.60;99.90
52275;DHT22;38228;50.940;4.024;2022-09-09T18:38:08;17.60;99.90
52275;DHT22;38228;50.940;4.024;2022-09-09T18:40:33;17.50;99.90
52275;DHT22;38228;50.940;4.024;2022-09-09T18:42:59;17.50;99.90
52275;DHT22;38228;50.940;4.024;2022-09-09T18:45:25;17.50;99.90
52275;DHT22;38228;50.940;4.024;2022-09-09T18:47:51;17.50;99.90
52275;DHT22;38228;50.940;4.024;2022-09-09T18:50:16;17.40;99.90
52275;DHT22;38228;50.940;4.024;2022-09-09T18:52:43;17.50;99.90
52275;DHT22;38228;50.940;4.024;2022-09-09T18:55:09;17.60;99.90
52275;DHT22;38228;50.940;4.024;2022-09-09T18:57:35;17.60;99.90
52275;DHT22;38228;50.940;4.024;2022-09-09T19:00:01;17.60;99.90
52275;DHT22;38228;50.940;4.024;2022-09-09T19:02:26;17.40;99.90
52275;DHT22;38228;50.940;4.024;2022-09-09T19:04:52;17.30;99.90
52275;DHT22;38228;50.940;4.024;2022-09-09T19:07:18;17.30;99.90
52275;DHT22;38228;50.940;4.024;2022-09-09T19:09:44;17.40;99.90
52275;DHT22;38228;50.940;4.024;2022-09-09T19:12:10;17.50;99.90
52275;DHT22;38228;50.940;4.024;2022-09-09T19:14:35;17.50;99.90
52275;DHT22;38228;50.940;4.024;2022-09-09T19:17:02;17.40;99.90
52275;DHT22;38228;50.940;4.024;2022-09-09T19:19:32;17.30;99.90
52275;DHT22;38228;50.940;4.024;2022-09-09T19:21:59;17.30;99.90
52275;DHT22;38228;50.940;4.024;2022-09-09T19:24:28;17.20;99.90
52275;DHT22;38228;50.940;4.024;2022-09-09T19:26:58;17.30;99.90
52275;DHT22;38228;50.940;4.024;2022-09-09T19:29:28;17.20;99.90
52275;DHT22;38228;50.940;4.024;2022-09-09T19:31:55;17.30;99.90
52275;DHT22;38228;50.940;4.024;2022-09-09T19:34:22;17.30;99.90
52275;DHT22;38228;50.940;4.024;2022-09-09T19:36:49;17.30;99.90
52275;DHT22;38228;50.940;4.024;2022-09-09T19:39:16;17.50;99.90
52275;DHT22;38228;50.940;4.024;2022-09-09T19:41:42;17.50;99.90
52275;DHT22;38228;50.940;4.024;2022-09-09T19:44:14;17.40;99.90
52275;DHT22;38228;50.940;4.024;2022-09-09T19:46:41;17.40;99.90
52275;DHT22;38228;50.940;4.024;2022-09-09T19:49:08;17.40;99.90
52275;DHT22;38228;50.940;4.024;2022-09-09T19:51:34;17.40;99.90
52275;DHT22;38228;50.940;4.024;2022-09-09T19:54:05;17.40;99.90
52275;DHT22;38228;50.940;4.024;2022-09-09T19:56:32;17.40;99.90
52275;DHT22;38228;50.940;4.024;2022-09-09T19:58:59;17.40;99.90
52275;DHT22;38228;50.940;4.024;2022-09-09T20:01:29;17.40;99.90
52275;DHT22;38228;50.940;4.024;2022-09-09T20:03:58;17.40;99.90
52275;DHT22;38228;50.940;4.024;2022-09-09T20:06:28;17.30;99.90
52275;DHT22;38228;50.940;4.024;2022-09-09T20:08:55;17.30;99.90
52275;DHT22;38228;50.940;4.024;2022-09-09T20:11:21;17.40;99.90
52275;DHT22;38228;50.940;4.024;2022-09-09T20:13:48;17.40;99.90
52275;DHT22;38228;50.940;4.024;2022-09-09T20:16:20;17.40;99.90
52275;DHT22;38228;50.940;4.024;2022-09-09T20:18:48;17.30;99.90
52275;DHT22;38228;50.940;4.024;2022-09-09T20:21:19;17.30;99.90
52275;DHT22;38228;50.940;4.024;2022-09-09T20:23:49;17.30;99.90
52275;DHT22;38228;50.940;4.024;2022-09-09T20:26:17;17.10;99.90
52275;DHT22;38228;50.940;4.024;2022-09-09T20:28:46;17.10;99.90
52275;DHT22;38228;50.940;4.024;2022-09-09T20:31:15;17.10;99.90
52275;DHT22;38228;50.940;4.024;2022-09-09T20:33:42;17.00;99.90
52275;DHT22;38228;50.940;4.024;2022-09-09T20:36:11;17.00;99.90
52275;DHT22;38228;50.940;4.024;2022-09-09T20:38:42;16.90;99.90
52275;DHT22;38228;50.940;4.024;2022-09-09T20:41:08;17.00;99.90
52275;DHT22;38228;50.940;4.024;2022-09-09T20:43:39;16.90;99.90
52275;DHT22;38228;50.940;4.024;2022-09-09T20:46:05;16.90;99.90
52275;DHT22;38228;50.940;4.024;2022-09-09T20:48:32;16.90;99.90
52275;DHT22;38228;50.940;4.024;2022-09-09T20:51:06;16.80;99.90
52275;DHT22;38228;50.940;4.024;2022-09-09T20:53:34;16.80;99.90
52275;DHT22;38228;50.940;4.024;2022-09-09T20:56:00;16.90;99.90
52275;DHT22;38228;50.940;4.024;2022-09-09T20:58:27;16.90;99.90
52275;DHT22;38228;50.940;4.024;2022-09-09T21:00:54;17.00;99.90
52275;DHT22;38228;50.940;4.024;2022-09-09T21:03:28;17.00;99.90
52275;DHT22;38228;50.940;4.024;2022-09-09T21:05:54;17.10;99.90